Airfield :







YOU CAN JOIN US ON...

 
LOGIN :

Register | Disclaimer

   EN    FR    IT 

 









Legend :    VFR   Marginal VFR   IFR   Intensive IFR   Very Intensive IFR
Visi :
Ceiling :
>= 8 km
>= 3000ft
5 to 8 km
1000 to 3000 ft
1500m to 5 km
500 to 1000 ft
800 to 1500m
200 to 500 ft
< 800m
< 200 ft
Symbols :   Thunderstorms  Fog  Heavy snow  Heavy precipitations  Wind > 20 kt






- Airport Elevation : 84 ft
- IATA code : YJT


CYJT - Stephenville

CURRENT METAR :
  • 142000Z 06014KT 15SM FEW020 BKN024 18/12 A3002 RMK SC1SC7 SC TR PRESRR SLP167 DENSITY ALT 400FT

EXPIRED METARs :
  • 141900Z 23004KT 200V270 15SM FEW020 FEW027 SCT070 BKN130 BKN220 18/13 A3000 RMK SC1SC2AC2AC1CI1 SC TR SLP160 DENSITY ALT 400FT
  • 141800Z 22005KT 15SM FEW020 SCT076 BKN150 BKN240 18/13 A2999 RMK SC1AC2AC2CS1 SLP158 DENSITY ALT 400FT

TAF TAF CYJT
Valid from the 14 at 18:00 until the 15 at 18:00 UTC


141738Z 1418/1518 25010KT P6SM SCT020 BKN080
TEMPO 1418/1422 BKN020 OVC080
BECMG 1418/1420 07008KT
FM142200 07008KT P6SM BKN025
TEMPO 1422/1512 5SM -SHRA BR BKN020
BECMG 1422/1424 07012G22KT
FM151200 06012G22KT P6SM BKN025
FM151500 06012G22KT P6SM SCT025 BKN200 RMK NXT FCST BY 150000Z
CZQX FIR / North America



MET'MAP, your aeronautical weather chart ! - Copyright ORBIFLY December 2007 - Disclaimer

ORBIFLY MET'MAP TEAM :

Programming & Development : Alexandra Zaïnal
Concept & original design : Baudouin d'Aumeries
Assistance for programming : Marc-Olivier Méhu
Technical & hardware support : Manuel Goepfert

Contact : metmap@orbifly.com




SOURCES & CREDITS :

   NOAA